sensor_id;sensor_type;location;lat;lon;timestamp;P1;durP1;ratioP1;P2;durP2;ratioP2
72354;SDS011;60314;55.040;73.076;2022-10-16T00:01:28;17.70;;;10.45;;
72354;SDS011;60314;55.040;73.076;2022-10-16T00:03:57;20.48;;;9.98;;
72354;SDS011;60314;55.040;73.076;2022-10-16T00:06:25;21.40;;;10.40;;
72354;SDS011;60314;55.040;73.076;2022-10-16T00:08:53;20.30;;;12.13;;
72354;SDS011;60314;55.040;73.076;2022-10-16T00:11:21;25.50;;;12.23;;
72354;SDS011;60314;55.040;73.076;2022-10-16T00:13:50;22.23;;;11.23;;
72354;SDS011;60314;55.040;73.076;2022-10-16T00:16:18;21.08;;;11.10;;
72354;SDS011;60314;55.040;73.076;2022-10-16T00:18:45;24.80;;;10.93;;
72354;SDS011;60314;55.040;73.076;2022-10-16T00:21:13;20.98;;;10.50;;
72354;SDS011;60314;55.040;73.076;2022-10-16T00:24:01;21.17;;;11.07;;
72354;SDS011;60314;55.040;73.076;2022-10-16T00:26:31;18.88;;;10.90;;
72354;SDS011;60314;55.040;73.076;2022-10-16T00:28:58;20.17;;;10.38;;
72354;SDS011;60314;55.040;73.076;2022-10-16T00:31:25;22.52;;;11.93;;
72354;SDS011;60314;55.040;73.076;2022-10-16T00:33:52;21.27;;;11.60;;
72354;SDS011;60314;55.040;73.076;2022-10-16T00:36:20;22.58;;;10.68;;
72354;SDS011;60314;55.040;73.076;2022-10-16T00:38:52;21.35;;;10.13;;
72354;SDS011;60314;55.040;73.076;2022-10-16T00:41:21;23.45;;;10.95;;
72354;SDS011;60314;55.040;73.076;2022-10-16T00:43:49;19.10;;;10.15;;
72354;SDS011;60314;55.040;73.076;2022-10-16T00:46:19;24.00;;;11.50;;
72354;SDS011;60314;55.040;73.076;2022-10-16T00:48:59;30.88;;;11.00;;
72354;SDS011;60314;55.040;73.076;2022-10-16T00:51:31;25.23;;;10.27;;
72354;SDS011;60314;55.040;73.076;2022-10-16T00:54:00;24.00;;;10.13;;
72354;SDS011;60314;55.040;73.076;2022-10-16T00:56:30;18.90;;;10.90;;
72354;SDS011;60314;55.040;73.076;2022-10-16T00:58:58;18.63;;;10.50;;
72354;SDS011;60314;55.040;73.076;2022-10-16T01:01:25;23.55;;;11.57;;
72354;SDS011;60314;55.040;73.076;2022-10-16T01:03:52;22.10;;;11.02;;
72354;SDS011;60314;55.040;73.076;2022-10-16T01:28:21;22.55;;;11.13;;
72354;SDS011;60314;55.040;73.076;2022-10-16T01:30:55;23.95;;;11.38;;
72354;SDS011;60314;55.040;73.076;2022-10-16T01:33:30;19.90;;;10.32;;
72354;SDS011;60314;55.040;73.076;2022-10-16T01:36:14;21.83;;;9.93;;
72354;SDS011;60314;55.040;73.076;2022-10-16T01:38:45;22.42;;;10.10;;
72354;SDS011;60314;55.040;73.076;2022-10-16T01:44:36;21.95;;;10.23;;
72354;SDS011;60314;55.040;73.076;2022-10-16T01:46:46;21.83;;;9.70;;
72354;SDS011;60314;55.040;73.076;2022-10-16T01:49:16;22.13;;;10.75;;
72354;SDS011;60314;55.040;73.076;2022-10-16T01:51:44;17.95;;;9.65;;
72354;SDS011;60314;55.040;73.076;2022-10-16T01:54:14;18.70;;;9.80;;
72354;SDS011;60314;55.040;73.076;2022-10-16T01:56:43;19.10;;;10.75;;
72354;SDS011;60314;55.040;73.076;2022-10-16T01:59:13;22.17;;;10.15;;
72354;SDS011;60314;55.040;73.076;2022-10-16T02:01:44;19.63;;;10.50;;
72354;SDS011;60314;55.040;73.076;2022-10-16T02:07:01;24.52;;;10.13;;
72354;SDS011;60314;55.040;73.076;2022-10-16T02:09:34;17.20;;;9.60;;
72354;SDS011;60314;55.040;73.076;2022-10-16T02:12:03;19.98;;;9.52;;
72354;SDS011;60314;55.040;73.076;2022-10-16T02:14:37;19.38;;;9.68;;
72354;SDS011;60314;55.040;73.076;2022-10-16T02:17:12;21.90;;;10.30;;
72354;SDS011;60314;55.040;73.076;2022-10-16T02:19:49;23.55;;;11.07;;
72354;SDS011;60314;55.040;73.076;2022-10-16T02:22:38;18.20;;;9.52;;
72354;SDS011;60314;55.040;73.076;2022-10-16T02:25:17;20.42;;;10.32;;
72354;SDS011;60314;55.040;73.076;2022-10-16T02:28:01;20.70;;;10.05;;
72354;SDS011;60314;55.040;73.076;2022-10-16T02:30:46;25.15;;;9.88;;
72354;SDS011;60314;55.040;73.076;2022-10-16T02:33:30;18.40;;;10.02;;
72354;SDS011;60314;55.040;73.076;2022-10-16T02:35:59;21.15;;;10.65;;
72354;SDS011;60314;55.040;73.076;2022-10-16T02:38:26;21.52;;;11.27;;
72354;SDS011;60314;55.040;73.076;2022-10-16T02:40:55;26.30;;;10.95;;
72354;SDS011;60314;55.040;73.076;2022-10-16T02:43:22;17.60;;;9.88;;
72354;SDS011;60314;55.040;73.076;2022-10-16T02:45:50;17.65;;;9.70;;
72354;SDS011;60314;55.040;73.076;2022-10-16T02:48:17;18.58;;;9.60;;
72354;SDS011;60314;55.040;73.076;2022-10-16T02:50:48;21.50;;;9.90;;
72354;SDS011;60314;55.040;73.076;2022-10-16T02:53:15;21.85;;;9.65;;
72354;SDS011;60314;55.040;73.076;2022-10-16T02:55:41;19.05;;;10.20;;
72354;SDS011;60314;55.040;73.076;2022-10-16T02:58:08;25.73;;;10.85;;
72354;SDS011;60314;55.040;73.076;2022-10-16T03:00:35;16.80;;;9.95;;
72354;SDS011;60314;55.040;73.076;2022-10-16T03:03:03;22.38;;;10.15;;
72354;SDS011;60314;55.040;73.076;2022-10-16T03:05:30;17.35;;;10.15;;
72354;SDS011;60314;55.040;73.076;2022-10-16T03:07:56;22.60;;;10.38;;
72354;SDS011;60314;55.040;73.076;2022-10-16T03:10:26;23.17;;;11.20;;
72354;SDS011;60314;55.040;73.076;2022-10-16T03:12:53;21.35;;;10.25;;
72354;SDS011;60314;55.040;73.076;2022-10-16T03:15:30;21.50;;;11.00;;
72354;SDS011;60314;55.040;73.076;2022-10-16T03:17:59;21.63;;;11.20;;
72354;SDS011;60314;55.040;73.076;2022-10-16T03:20:26;20.08;;;10.82;;
72354;SDS011;60314;55.040;73.076;2022-10-16T03:22:52;25.42;;;12.98;;
72354;SDS011;60314;55.040;73.076;2022-10-16T03:25:19;24.13;;;12.00;;
72354;SDS011;60314;55.040;73.076;2022-10-16T03:27:46;28.98;;;13.10;;
72354;SDS011;60314;55.040;73.076;2022-10-16T03:30:13;25.70;;;13.93;;
72354;SDS011;60314;55.040;73.076;2022-10-16T03:32:39;29.95;;;16.63;;
72354;SDS011;60314;55.040;73.076;2022-10-16T03:35:12;34.10;;;17.27;;
72354;SDS011;60314;55.040;73.076;2022-10-16T03:38:07;29.15;;;16.23;;
72354;SDS011;60314;55.040;73.076;2022-10-16T03:40:45;31.60;;;15.82;;
72354;SDS011;60314;55.040;73.076;2022-10-16T03:43:20;29.27;;;15.95;;
72354;SDS011;60314;55.040;73.076;2022-10-16T03:45:51;28.45;;;15.77;;
72354;SDS011;60314;55.040;73.076;2022-10-16T03:48:28;30.23;;;15.60;;
72354;SDS011;60314;55.040;73.076;2022-10-16T03:50:56;29.33;;;14.40;;
72354;SDS011;60314;55.040;73.076;2022-10-16T03:53:28;33.25;;;15.38;;
72354;SDS011;60314;55.040;73.076;2022-10-16T03:56:08;27.48;;;14.60;;
72354;SDS011;60314;55.040;73.076;2022-10-16T03:58:42;25.25;;;14.43;;
72354;SDS011;60314;55.040;73.076;2022-10-16T04:01:13;27.33;;;13.32;;
72354;SDS011;60314;55.040;73.076;2022-10-16T04:03:43;25.35;;;12.02;;
72354;SDS011;60314;55.040;73.076;2022-10-16T04:06:16;26.98;;;12.18;;
72354;SDS011;60314;55.040;73.076;2022-10-16T04:09:00;24.77;;;12.13;;
72354;SDS011;60314;55.040;73.076;2022-10-16T04:11:28;24.15;;;10.73;;
72354;SDS011;60314;55.040;73.076;2022-10-16T04:13:54;20.25;;;11.35;;
72354;SDS011;60314;55.040;73.076;2022-10-16T04:16:21;19.45;;;10.90;;
72354;SDS011;60314;55.040;73.076;2022-10-16T04:18:47;21.13;;;10.52;;
72354;SDS011;60314;55.040;73.076;2022-10-16T04:21:14;24.25;;;11.23;;
72354;SDS011;60314;55.040;73.076;2022-10-16T04:23:41;20.85;;;10.68;;
72354;SDS011;60314;55.040;73.076;2022-10-16T04:26:08;19.23;;;10.52;;
72354;SDS011;60314;55.040;73.076;2022-10-16T04:28:36;17.75;;;11.00;;
72354;SDS011;60314;55.040;73.076;2022-10-16T04:31:06;18.60;;;11.15;;
72354;SDS011;60314;55.040;73.076;2022-10-16T04:33:33;22.50;;;11.98;;
72354;SDS011;60314;55.040;73.076;2022-10-16T04:36:00;21.02;;;12.15;;
72354;SDS011;60314;55.040;73.076;2022-10-16T04:38:27;24.88;;;12.57;;
72354;SDS011;60314;55.040;73.076;2022-10-16T04:40:54;21.83;;;12.90;;
72354;SDS011;60314;55.040;73.076;2022-10-16T04:43:21;24.15;;;13.30;;
72354;SDS011;60314;55.040;73.076;2022-10-16T04:45:47;25.27;;;13.60;;
72354;SDS011;60314;55.040;73.076;2022-10-16T04:48:16;22.50;;;12.93;;
72354;SDS011;60314;55.040;73.076;2022-10-16T04:50:49;20.92;;;12.57;;
72354;SDS011;60314;55.040;73.076;2022-10-16T04:53:15;25.35;;;14.15;;
72354;SDS011;60314;55.040;73.076;2022-10-16T04:55:42;21.85;;;13.13;;
72354;SDS011;60314;55.040;73.076;2022-10-16T04:58:19;22.67;;;12.77;;
72354;SDS011;60314;55.040;73.076;2022-10-16T05:00:46;17.98;;;10.98;;
72354;SDS011;60314;55.040;73.076;2022-10-16T05:03:16;22.02;;;11.23;;
72354;SDS011;60314;55.040;73.076;2022-10-16T05:05:44;15.38;;;8.45;;
72354;SDS011;60314;55.040;73.076;2022-10-16T05:08:12;12.48;;;7.25;;
72354;SDS011;60314;55.040;73.076;2022-10-16T05:10:43;14.07;;;6.53;;
72354;SDS011;60314;55.040;73.076;2022-10-16T05:13:11;13.73;;;5.90;;
72354;SDS011;60314;55.040;73.076;2022-10-16T05:15:38;10.38;;;5.57;;
72354;SDS011;60314;55.040;73.076;2022-10-16T05:18:04;9.90;;;5.60;;
72354;SDS011;60314;55.040;73.076;2022-10-16T05:20:31;8.25;;;5.13;;
72354;SDS011;60314;55.040;73.076;2022-10-16T05:22:58;10.13;;;5.40;;
72354;SDS011;60314;55.040;73.076;2022-10-16T05:25:34;11.05;;;5.45;;
72354;SDS011;60314;55.040;73.076;2022-10-16T05:28:01;12.05;;;5.40;;
72354;SDS011;60314;55.040;73.076;2022-10-16T05:30:32;10.73;;;5.13;;
72354;SDS011;60314;55.040;73.076;2022-10-16T05:32:58;11.02;;;5.18;;
72354;SDS011;60314;55.040;73.076;2022-10-16T05:35:25;16.13;;;5.72;;
72354;SDS011;60314;55.040;73.076;2022-10-16T05:37:52;12.15;;;6.00;;
72354;SDS011;60314;55.040;73.076;2022-10-16T05:40:18;11.55;;;6.25;;
72354;SDS011;60314;55.040;73.076;2022-10-16T05:42:45;13.50;;;5.65;;
72354;SDS011;60314;55.040;73.076;2022-10-16T05:45:20;12.13;;;5.40;;
72354;SDS011;60314;55.040;73.076;2022-10-16T05:47:57;12.07;;;5.90;;
72354;SDS011;60314;55.040;73.076;2022-10-16T05:50:33;10.65;;;5.53;;
72354;SDS011;60314;55.040;73.076;2022-10-16T05:53:00;14.32;;;6.18;;
72354;SDS011;60314;55.040;73.076;2022-10-16T05:55:26;11.73;;;6.88;;
72354;SDS011;60314;55.040;73.076;2022-10-16T05:58:04;14.65;;;7.10;;
72354;SDS011;60314;55.040;73.076;2022-10-16T06:00:30;14.90;;;5.88;;
72354;SDS011;60314;55.040;73.076;2022-10-16T06:02:57;13.27;;;6.72;;
72354;SDS011;60314;55.040;73.076;2022-10-16T06:05:23;12.95;;;6.22;;
72354;SDS011;60314;55.040;73.076;2022-10-16T06:07:54;13.95;;;6.70;;
72354;SDS011;60314;55.040;73.076;2022-10-16T06:10:26;10.30;;;5.47;;
72354;SDS011;60314;55.040;73.076;2022-10-16T06:12:54;8.05;;;4.07;;
72354;SDS011;60314;55.040;73.076;2022-10-16T06:15:24;6.07;;;3.60;;
72354;SDS011;60314;55.040;73.076;2022-10-16T06:17:50;6.22;;;3.10;;
72354;SDS011;60314;55.040;73.076;2022-10-16T06:20:17;8.45;;;2.88;;
72354;SDS011;60314;55.040;73.076;2022-10-16T06:22:49;5.65;;;2.88;;
72354;SDS011;60314;55.040;73.076;2022-10-16T06:25:15;6.68;;;3.35;;
72354;SDS011;60314;55.040;73.076;2022-10-16T06:27:48;8.50;;;4.20;;
72354;SDS011;60314;55.040;73.076;2022-10-16T06:30:20;7.57;;;3.67;;
72354;SDS011;60314;55.040;73.076;2022-10-16T06:32:47;6.57;;;3.33;;
72354;SDS011;60314;55.040;73.076;2022-10-16T06:35:18;6.60;;;4.32;;
72354;SDS011;60314;55.040;73.076;2022-10-16T06:40:23;11.32;;;6.47;;
72354;SDS011;60314;55.040;73.076;2022-10-16T06:42:50;7.20;;;4.40;;
72354;SDS011;60314;55.040;73.076;2022-10-16T06:45:17;8.52;;;4.80;;
72354;SDS011;60314;55.040;73.076;2022-10-16T06:47:44;9.13;;;4.55;;
72354;SDS011;60314;55.040;73.076;2022-10-16T06:50:10;10.40;;;4.90;;
72354;SDS011;60314;55.040;73.076;2022-10-16T06:55:20;10.20;;;4.65;;
72354;SDS011;60314;55.040;73.076;2022-10-16T06:57:47;10.85;;;4.38;;
72354;SDS011;60314;55.040;73.076;2022-10-16T07:00:14;9.18;;;4.82;;
72354;SDS011;60314;55.040;73.076;2022-10-16T07:02:41;8.60;;;5.55;;
72354;SDS011;60314;55.040;73.076;2022-10-16T07:05:17;9.90;;;5.80;;
72354;SDS011;60314;55.040;73.076;2022-10-16T07:07:54;12.68;;;5.47;;
72354;SDS011;60314;55.040;73.076;2022-10-16T07:10:21;11.88;;;5.95;;
72354;SDS011;60314;55.040;73.076;2022-10-16T07:12:50;8.98;;;4.97;;
72354;SDS011;60314;55.040;73.076;2022-10-16T07:15:16;9.73;;;4.68;;
72354;SDS011;60314;55.040;73.076;2022-10-16T07:17:43;12.02;;;5.07;;
72354;SDS011;60314;55.040;73.076;2022-10-16T07:20:20;10.05;;;5.30;;
72354;SDS011;60314;55.040;73.076;2022-10-16T07:22:46;9.20;;;4.43;;
72354;SDS011;60314;55.040;73.076;2022-10-16T07:25:13;10.35;;;4.68;;
72354;SDS011;60314;55.040;73.076;2022-10-16T07:27:40;8.63;;;5.05;;
72354;SDS011;60314;55.040;73.076;2022-10-16T07:30:07;8.38;;;5.03;;
72354;SDS011;60314;55.040;73.076;2022-10-16T07:32:34;12.25;;;5.97;;
72354;SDS011;60314;55.040;73.076;2022-10-16T07:35:01;12.65;;;8.55;;
72354;SDS011;60314;55.040;73.076;2022-10-16T07:37:28;10.27;;;5.35;;
72354;SDS011;60314;55.040;73.076;2022-10-16T07:39:54;7.43;;;4.63;;
72354;SDS011;60314;55.040;73.076;2022-10-16T07:42:28;12.95;;;4.95;;
72354;SDS011;60314;55.040;73.076;2022-10-16T07:44:59;9.97;;;4.40;;
72354;SDS011;60314;55.040;73.076;2022-10-16T07:47:31;9.55;;;4.22;;
72354;SDS011;60314;55.040;73.076;2022-10-16T07:49:57;8.18;;;4.13;;
72354;SDS011;60314;55.040;73.076;2022-10-16T07:52:24;6.72;;;4.00;;
72354;SDS011;60314;55.040;73.076;2022-10-16T07:54:50;7.55;;;4.00;;
72354;SDS011;60314;55.040;73.076;2022-10-16T07:57:17;7.88;;;4.50;;
72354;SDS011;60314;55.040;73.076;2022-10-16T07:59:45;7.75;;;4.20;;
72354;SDS011;60314;55.040;73.076;2022-10-16T08:02:17;6.07;;;3.47;;
72354;SDS011;60314;55.040;73.076;2022-10-16T08:04:46;5.47;;;3.17;;
72354;SDS011;60314;55.040;73.076;2022-10-16T08:07:24;5.63;;;3.17;;
72354;SDS011;60314;55.040;73.076;2022-10-16T08:09:52;5.63;;;3.00;;
72354;SDS011;60314;55.040;73.076;2022-10-16T08:12:19;6.22;;;3.20;;
72354;SDS011;60314;55.040;73.076;2022-10-16T08:14:45;7.03;;;3.53;;
72354;SDS011;60314;55.040;73.076;2022-10-16T08:17:13;5.15;;;3.15;;
72354;SDS011;60314;55.040;73.076;2022-10-16T08:19:45;5.15;;;3.17;;
72354;SDS011;60314;55.040;73.076;2022-10-16T08:22:22;4.53;;;2.63;;
72354;SDS011;60314;55.040;73.076;2022-10-16T08:24:49;5.97;;;2.97;;
72354;SDS011;60314;55.040;73.076;2022-10-16T08:27:30;5.88;;;3.33;;
72354;SDS011;60314;55.040;73.076;2022-10-16T08:30:04;5.63;;;2.92;;
72354;SDS011;60314;55.040;73.076;2022-10-16T08:32:41;6.53;;;4.13;;
72354;SDS011;60314;55.040;73.076;2022-10-16T08:35:18;6.10;;;3.63;;
72354;SDS011;60314;55.040;73.076;2022-10-16T08:37:45;6.18;;;3.45;;
72354;SDS011;60314;55.040;73.076;2022-10-16T08:40:16;7.80;;;3.13;;
72354;SDS011;60314;55.040;73.076;2022-10-16T08:42:55;5.15;;;3.08;;
72354;SDS011;60314;55.040;73.076;2022-10-16T08:48:27;6.60;;;3.20;;
72354;SDS011;60314;55.040;73.076;2022-10-16T08:51:37;5.25;;;2.92;;
72354;SDS011;60314;55.040;73.076;2022-10-16T08:54:03;5.32;;;3.13;;
72354;SDS011;60314;55.040;73.076;2022-10-16T08:56:31;7.72;;;3.90;;
72354;SDS011;60314;55.040;73.076;2022-10-16T08:58:59;8.30;;;3.35;;
72354;SDS011;60314;55.040;73.076;2022-10-16T09:01:47;5.82;;;3.20;;
72354;SDS011;60314;55.040;73.076;2022-10-16T09:09:54;7.57;;;3.30;;
72354;SDS011;60314;55.040;73.076;2022-10-16T09:12:52;6.68;;;3.20;;
72354;SDS011;60314;55.040;73.076;2022-10-16T09:18:32;6.07;;;3.20;;
72354;SDS011;60314;55.040;73.076;2022-10-16T09:21:09;6.82;;;3.65;;
72354;SDS011;60314;55.040;73.076;2022-10-16T09:24:00;5.38;;;3.45;;
72354;SDS011;60314;55.040;73.076;2022-10-16T09:26:37;7.15;;;3.60;;
72354;SDS011;60314;55.040;73.076;2022-10-16T09:29:09;8.13;;;4.35;;
72354;SDS011;60314;55.040;73.076;2022-10-16T09:31:38;7.10;;;3.85;;
72354;SDS011;60314;55.040;73.076;2022-10-16T09:34:35;9.93;;;4.20;;
72354;SDS011;60314;55.040;73.076;2022-10-16T09:37:08;7.30;;;3.38;;
72354;SDS011;60314;55.040;73.076;2022-10-16T09:39:44;7.45;;;3.65;;
72354;SDS011;60314;55.040;73.076;2022-10-16T09:42:22;7.22;;;3.42;;
72354;SDS011;60314;55.040;73.076;2022-10-16T09:44:54;7.00;;;3.72;;
72354;SDS011;60314;55.040;73.076;2022-10-16T09:47:26;7.78;;;3.90;;
72354;SDS011;60314;55.040;73.076;2022-10-16T09:52:23;9.25;;;5.30;;
72354;SDS011;60314;55.040;73.076;2022-10-16T09:54:59;9.27;;;6.00;;
72354;SDS011;60314;55.040;73.076;2022-10-16T09:57:57;6.70;;;4.18;;
72354;SDS011;60314;55.040;73.076;2022-10-16T10:00:35;12.10;;;4.95;;
72354;SDS011;60314;55.040;73.076;2022-10-16T10:03:42;9.15;;;4.63;;
72354;SDS011;60314;55.040;73.076;2022-10-16T10:06:20;6.28;;;3.58;;
72354;SDS011;60314;55.040;73.076;2022-10-16T10:08:53;10.10;;;3.85;;
72354;SDS011;60314;55.040;73.076;2022-10-16T10:14:20;7.10;;;3.35;;
72354;SDS011;60314;55.040;73.076;2022-10-16T10:19:37;5.15;;;2.58;;
72354;SDS011;60314;55.040;73.076;2022-10-16T10:22:18;6.45;;;3.03;;
72354;SDS011;60314;55.040;73.076;2022-10-16T10:24:54;6.40;;;3.15;;
72354;SDS011;60314;55.040;73.076;2022-10-16T10:38:59;5.20;;;3.08;;
72354;SDS011;60314;55.040;73.076;2022-10-16T10:47:07;5.60;;;3.10;;
72354;SDS011;60314;55.040;73.076;2022-10-16T10:58:10;7.40;;;2.83;;
72354;SDS011;60314;55.040;73.076;2022-10-16T11:06:20;5.75;;;3.40;;
72354;SDS011;60314;55.040;73.076;2022-10-16T11:08:51;5.43;;;3.03;;
72354;SDS011;60314;55.040;73.076;2022-10-16T11:12:07;9.05;;;3.90;;
72354;SDS011;60314;55.040;73.076;2022-10-16T11:27:33;9.30;;;4.97;;
72354;SDS011;60314;55.040;73.076;2022-10-16T11:30:12;9.38;;;4.68;;
72354;SDS011;60314;55.040;73.076;2022-10-16T11:35:33;17.40;;;9.82;;
72354;SDS011;60314;55.040;73.076;2022-10-16T11:38:09;18.65;;;9.68;;
72354;SDS011;60314;55.040;73.076;2022-10-16T11:40:51;16.83;;;9.60;;
72354;SDS011;60314;55.040;73.076;2022-10-16T11:43:28;14.75;;;8.15;;
72354;SDS011;60314;55.040;73.076;2022-10-16T11:46:15;14.30;;;7.90;;
72354;SDS011;60314;55.040;73.076;2022-10-16T11:48:51;14.60;;;8.63;;
72354;SDS011;60314;55.040;73.076;2022-10-16T11:54:33;11.88;;;6.57;;
72354;SDS011;60314;55.040;73.076;2022-10-16T11:57:13;15.63;;;9.02;;
72354;SDS011;60314;55.040;73.076;2022-10-16T12:02:52;11.60;;;6.28;;
72354;SDS011;60314;55.040;73.076;2022-10-16T12:08:21;11.60;;;7.40;;
72354;SDS011;60314;55.040;73.076;2022-10-16T12:10:48;18.95;;;9.95;;
72354;SDS011;60314;55.040;73.076;2022-10-16T12:18:43;29.65;;;14.35;;
72354;SDS011;60314;55.040;73.076;2022-10-16T12:21:21;27.53;;;14.47;;
72354;SDS011;60314;55.040;73.076;2022-10-16T12:23:57;27.27;;;15.52;;
72354;SDS011;60314;55.040;73.076;2022-10-16T12:26:32;35.10;;;17.20;;
72354;SDS011;60314;55.040;73.076;2022-10-16T12:29:13;33.17;;;18.20;;
72354;SDS011;60314;55.040;73.076;2022-10-16T12:31:45;35.47;;;18.23;;
72354;SDS011;60314;55.040;73.076;2022-10-16T12:37:10;37.05;;;21.45;;
72354;SDS011;60314;55.040;73.076;2022-10-16T12:39:37;37.30;;;19.70;;
72354;SDS011;60314;55.040;73.076;2022-10-16T12:42:05;29.13;;;17.73;;
72354;SDS011;60314;55.040;73.076;2022-10-16T12:44:46;34.50;;;18.57;;
72354;SDS011;60314;55.040;73.076;2022-10-16T12:47:20;30.67;;;18.33;;
72354;SDS011;60314;55.040;73.076;2022-10-16T12:50:00;37.55;;;19.58;;
72354;SDS011;60314;55.040;73.076;2022-10-16T12:54:59;42.38;;;22.85;;
72354;SDS011;60314;55.040;73.076;2022-10-16T13:00:02;40.22;;;23.25;;
72354;SDS011;60314;55.040;73.076;2022-10-16T13:19:18;34.65;;;17.73;;
72354;SDS011;60314;55.040;73.076;2022-10-16T13:22:03;35.60;;;19.45;;
72354;SDS011;60314;55.040;73.076;2022-10-16T13:30:16;27.30;;;15.38;;
72354;SDS011;60314;55.040;73.076;2022-10-16T13:35:31;24.80;;;14.75;;
72354;SDS011;60314;55.040;73.076;2022-10-16T13:38:14;31.13;;;15.38;;
72354;SDS011;60314;55.040;73.076;2022-10-16T13:40:55;26.38;;;14.70;;
72354;SDS011;60314;55.040;73.076;2022-10-16T13:43:49;30.25;;;14.20;;
72354;SDS011;60314;55.040;73.076;2022-10-16T13:46:18;38.28;;;17.80;;
72354;SDS011;60314;55.040;73.076;2022-10-16T13:49:00;47.72;;;25.00;;
72354;SDS011;60314;55.040;73.076;2022-10-16T13:51:28;38.67;;;19.17;;
72354;SDS011;60314;55.040;73.076;2022-10-16T13:53:56;32.50;;;18.23;;
72354;SDS011;60314;55.040;73.076;2022-10-16T13:56:28;34.60;;;18.80;;
72354;SDS011;60314;55.040;73.076;2022-10-16T13:59:05;34.80;;;18.70;;
72354;SDS011;60314;55.040;73.076;2022-10-16T14:01:51;31.63;;;17.52;;
72354;SDS011;60314;55.040;73.076;2022-10-16T14:04:21;30.38;;;17.52;;
72354;SDS011;60314;55.040;73.076;2022-10-16T14:06:49;25.90;;;16.05;;
72354;SDS011;60314;55.040;73.076;2022-10-16T14:09:24;33.75;;;16.65;;
72354;SDS011;60314;55.040;73.076;2022-10-16T14:12:11;30.48;;;17.38;;
72354;SDS011;60314;55.040;73.076;2022-10-16T14:14:48;30.02;;;19.05;;
72354;SDS011;60314;55.040;73.076;2022-10-16T14:17:38;29.95;;;19.15;;
72354;SDS011;60314;55.040;73.076;2022-10-16T14:20:13;31.88;;;18.67;;
72354;SDS011;60314;55.040;73.076;2022-10-16T14:22:42;28.58;;;17.27;;
72354;SDS011;60314;55.040;73.076;2022-10-16T14:27:57;30.50;;;16.83;;
72354;SDS011;60314;55.040;73.076;2022-10-16T14:38:37;34.08;;;18.08;;
72354;SDS011;60314;55.040;73.076;2022-10-16T14:41:05;32.83;;;17.92;;
72354;SDS011;60314;55.040;73.076;2022-10-16T14:43:33;33.67;;;18.48;;
72354;SDS011;60314;55.040;73.076;2022-10-16T14:48:40;36.78;;;19.05;;
72354;SDS011;60314;55.040;73.076;2022-10-16T14:51:13;32.85;;;18.55;;
72354;SDS011;60314;55.040;73.076;2022-10-16T14:53:41;36.72;;;20.65;;
72354;SDS011;60314;55.040;73.076;2022-10-16T14:56:09;42.78;;;22.05;;
72354;SDS011;60314;55.040;73.076;2022-10-16T14:58:47;42.22;;;22.00;;
72354;SDS011;60314;55.040;73.076;2022-10-16T15:01:16;43.20;;;22.52;;
72354;SDS011;60314;55.040;73.076;2022-10-16T15:03:53;50.47;;;24.73;;
72354;SDS011;60314;55.040;73.076;2022-10-16T15:06:20;50.58;;;24.77;;
72354;SDS011;60314;55.040;73.076;2022-10-16T15:08:47;43.30;;;23.77;;
72354;SDS011;60314;55.040;73.076;2022-10-16T15:11:17;42.75;;;23.77;;
72354;SDS011;60314;55.040;73.076;2022-10-16T15:13:45;40.15;;;22.90;;
72354;SDS011;60314;55.040;73.076;2022-10-16T15:16:14;46.00;;;22.85;;
72354;SDS011;60314;55.040;73.076;2022-10-16T15:18:42;46.78;;;24.15;;
72354;SDS011;60314;55.040;73.076;2022-10-16T15:21:14;40.85;;;21.88;;
72354;SDS011;60314;55.040;73.076;2022-10-16T15:24:00;34.17;;;17.52;;
72354;SDS011;60314;55.040;73.076;2022-10-16T15:26:37;19.50;;;11.60;;
72354;SDS011;60314;55.040;73.076;2022-10-16T15:29:13;17.60;;;9.93;;
72354;SDS011;60314;55.040;73.076;2022-10-16T15:31:40;12.63;;;6.32;;
72354;SDS011;60314;55.040;73.076;2022-10-16T15:34:09;8.13;;;4.38;;
72354;SDS011;60314;55.040;73.076;2022-10-16T15:36:46;6.00;;;3.78;;
72354;SDS011;60314;55.040;73.076;2022-10-16T15:39:17;6.43;;;3.92;;
72354;SDS011;60314;55.040;73.076;2022-10-16T15:41:46;5.32;;;3.53;;
72354;SDS011;60314;55.040;73.076;2022-10-16T15:44:24;6.10;;;3.25;;
72354;SDS011;60314;55.040;73.076;2022-10-16T15:46:55;6.50;;;3.58;;
72354;SDS011;60314;55.040;73.076;2022-10-16T15:49:22;5.75;;;3.00;;
72354;SDS011;60314;55.040;73.076;2022-10-16T15:51:49;5.50;;;2.53;;
72354;SDS011;60314;55.040;73.076;2022-10-16T15:54:15;4.57;;;2.50;;
72354;SDS011;60314;55.040;73.076;2022-10-16T15:56:42;5.35;;;2.72;;
72354;SDS011;60314;55.040;73.076;2022-10-16T15:59:08;5.95;;;2.22;;
72354;SDS011;60314;55.040;73.076;2022-10-16T16:01:35;4.28;;;2.30;;
72354;SDS011;60314;55.040;73.076;2022-10-16T16:04:02;5.13;;;2.30;;
72354;SDS011;60314;55.040;73.076;2022-10-16T16:06:30;4.07;;;2.00;;
72354;SDS011;60314;55.040;73.076;2022-10-16T16:08:58;3.65;;;1.90;;
72354;SDS011;60314;55.040;73.076;2022-10-16T16:11:25;4.53;;;2.08;;
72354;SDS011;60314;55.040;73.076;2022-10-16T16:13:52;3.80;;;2.40;;
72354;SDS011;60314;55.040;73.076;2022-10-16T16:16:20;5.75;;;2.13;;
72354;SDS011;60314;55.040;73.076;2022-10-16T16:18:47;3.78;;;2.15;;
72354;SDS011;60314;55.040;73.076;2022-10-16T16:21:15;18.50;;;7.80;;
72354;SDS011;60314;55.040;73.076;2022-10-16T16:23:41;9.40;;;4.55;;
72354;SDS011;60314;55.040;73.076;2022-10-16T16:26:13;5.78;;;2.90;;
72354;SDS011;60314;55.040;73.076;2022-10-16T16:28:41;5.60;;;2.95;;
72354;SDS011;60314;55.040;73.076;2022-10-16T16:31:09;4.82;;;3.08;;
72354;SDS011;60314;55.040;73.076;2022-10-16T16:33:36;9.07;;;3.13;;
72354;SDS011;60314;55.040;73.076;2022-10-16T16:36:13;5.30;;;3.25;;
72354;SDS011;60314;55.040;73.076;2022-10-16T16:38:40;7.05;;;3.70;;
72354;SDS011;60314;55.040;73.076;2022-10-16T16:41:13;8.68;;;4.60;;
72354;SDS011;60314;55.040;73.076;2022-10-16T16:43:44;8.60;;;4.18;;
72354;SDS011;60314;55.040;73.076;2022-10-16T16:46:11;9.18;;;4.68;;
72354;SDS011;60314;55.040;73.076;2022-10-16T16:48:38;9.13;;;5.35;;
72354;SDS011;60314;55.040;73.076;2022-10-16T16:51:10;9.27;;;5.57;;
72354;SDS011;60314;55.040;73.076;2022-10-16T16:53:45;8.68;;;5.45;;
72354;SDS011;60314;55.040;73.076;2022-10-16T16:56:13;13.48;;;7.15;;
72354;SDS011;60314;55.040;73.076;2022-10-16T16:58:52;10.15;;;5.10;;
72354;SDS011;60314;55.040;73.076;2022-10-16T17:01:26;9.05;;;5.18;;
72354;SDS011;60314;55.040;73.076;2022-10-16T17:03:54;9.93;;;5.35;;
72354;SDS011;60314;55.040;73.076;2022-10-16T17:06:26;9.55;;;5.45;;
72354;SDS011;60314;55.040;73.076;2022-10-16T17:08:55;7.15;;;4.90;;
72354;SDS011;60314;55.040;73.076;2022-10-16T17:11:27;8.60;;;5.70;;
72354;SDS011;60314;55.040;73.076;2022-10-16T17:13:59;9.10;;;4.88;;
72354;SDS011;60314;55.040;73.076;2022-10-16T17:16:28;7.10;;;5.03;;
72354;SDS011;60314;55.040;73.076;2022-10-16T17:19:05;8.98;;;5.30;;
72354;SDS011;60314;55.040;73.076;2022-10-16T17:21:33;9.23;;;4.95;;
72354;SDS011;60314;55.040;73.076;2022-10-16T17:24:01;10.68;;;4.97;;
72354;SDS011;60314;55.040;73.076;2022-10-16T17:26:29;9.15;;;5.05;;
72354;SDS011;60314;55.040;73.076;2022-10-16T17:28:57;7.63;;;4.97;;